createdAt,value
2023-03-13T00:00:01.710Z,100.00
2023-03-13T00:05:03.953Z,100.00
2023-03-13T00:10:06.810Z,100.00
2023-03-13T00:15:11.033Z,100.00
2023-03-13T00:20:13.020Z,100.00
2023-03-13T00:25:14.810Z,100.00
2023-03-13T00:30:18.210Z,100.00
2023-03-13T00:35:19.939Z,100.00
2023-03-13T00:40:22.448Z,100.00
2023-03-13T00:45:26.808Z,100.00
2023-03-13T00:50:28.538Z,99.59
2023-03-13T00:55:30.254Z,99.54
2023-03-13T01:00:33.272Z,99.31
2023-03-13T01:05:34.961Z,99.23
2023-03-13T01:10:36.689Z,99.04
2023-03-13T01:15:39.965Z,99.15
2023-03-13T01:20:41.734Z,99.14
2023-03-13T01:25:43.930Z,98.91
2023-03-13T01:30:47.168Z,98.85
2023-03-13T01:35:49.279Z,99.34
2023-03-13T01:40:51.035Z,98.75
2023-03-13T01:46:05.927Z,98.81
2023-03-13T01:51:27.101Z,98.65
2023-03-13T01:56:34.495Z,98.46
2023-03-13T02:01:38.687Z,98.28
2023-03-13T02:06:41.676Z,97.78
2023-03-13T02:11:47.645Z,97.02
2023-03-13T02:16:52.009Z,97.47
2023-03-13T02:21:54.827Z,97.16
2023-03-13T02:26:57.874Z,97.43
2023-03-13T02:31:59.717Z,97.44
2023-03-13T02:37:01.617Z,97.42
2023-03-13T02:42:05.232Z,97.64
2023-03-13T02:47:09.888Z,98.60
2023-03-13T02:52:13.346Z,99.63
2023-03-13T02:57:18.900Z,100.00
2023-03-13T03:02:20.825Z,100.00
2023-03-13T03:07:22.711Z,100.00
2023-03-13T03:12:26.806Z,100.00
2023-03-13T03:17:28.709Z,100.00
2023-03-13T03:22:30.541Z,100.00
2023-03-13T03:27:33.688Z,100.00
2023-03-13T03:32:35.597Z,100.00
2023-03-13T03:37:37.445Z,100.00
2023-03-13T03:42:41.383Z,100.00
2023-03-13T03:47:43.336Z,100.00
2023-03-13T03:52:46.106Z,100.00
2023-03-13T03:57:49.303Z,100.00
2023-03-13T04:03:00.043Z,100.00
2023-03-13T04:08:01.948Z,100.00
2023-03-13T04:13:05.027Z,100.00
2023-03-13T04:18:07.532Z,100.00
2023-03-13T04:23:09.270Z,100.00
2023-03-13T04:28:12.457Z,100.00
2023-03-13T04:33:18.557Z,100.00
2023-03-13T04:38:43.203Z,100.00
2023-03-13T04:43:59.719Z,100.00
2023-03-13T04:49:18.885Z,100.00
2023-03-13T04:54:39.143Z,100.00
2023-03-13T05:00:08.108Z,100.00
2023-03-13T05:05:26.165Z,100.00
2023-03-13T05:10:52.443Z,100.00
2023-03-13T05:16:14.771Z,100.00
2023-03-13T05:21:44.223Z,100.00
2023-03-13T05:27:02.507Z,100.00
2023-03-13T05:32:25.989Z,100.00
2023-03-13T05:37:48.054Z,100.00
2023-03-13T05:43:28.337Z,100.00
2023-03-13T05:48:52.726Z,100.00
2023-03-13T05:54:10.651Z,100.00
2023-03-13T05:59:32.608Z,100.00
2023-03-13T06:04:58.957Z,100.00
2023-03-13T06:10:00.906Z,100.00
2023-03-13T06:15:02.832Z,100.00
2023-03-13T06:20:26.176Z,100.00
2023-03-13T06:25:27.916Z,100.00
2023-03-13T06:30:29.649Z,100.00
2023-03-13T06:35:34.317Z,100.00
2023-03-13T06:40:38.850Z,100.00
2023-03-13T06:45:40.533Z,100.00
2023-03-13T06:50:43.638Z,100.00
2023-03-13T06:55:45.382Z,100.00
2023-03-13T07:00:47.305Z,100.00
2023-03-13T07:05:55.157Z,100.00
2023-03-13T07:10:59.022Z,100.00
2023-03-13T07:16:01.189Z,100.00
2023-03-13T07:21:07.363Z,100.00
2023-03-13T07:26:11.037Z,100.00
2023-03-13T07:31:14.979Z,100.00
2023-03-13T07:36:18.415Z,100.00
2023-03-13T07:41:20.351Z,100.00
2023-03-13T07:46:22.579Z,100.00
2023-03-13T07:51:42.216Z,100.00
2023-03-13T07:56:44.965Z,100.00
2023-03-13T08:01:46.678Z,100.00
2023-03-13T08:06:49.779Z,100.00
2023-03-13T08:11:51.480Z,100.00
2023-03-13T08:16:53.259Z,100.00
2023-03-13T08:21:56.336Z,100.00
2023-03-13T08:26:58.072Z,100.00
2023-03-13T08:31:59.739Z,100.00
2023-03-13T08:37:02.742Z,100.00
2023-03-13T08:42:04.548Z,100.00
2023-03-13T08:47:06.432Z,100.00
2023-03-13T08:52:09.594Z,100.00
2023-03-13T08:57:11.254Z,100.00
2023-03-13T09:02:18.730Z,100.00
2023-03-13T09:07:21.752Z,100.00
2023-03-13T09:12:30.764Z,100.00
2023-03-13T09:17:32.624Z,100.00
2023-03-13T09:22:35.649Z,100.00
2023-03-13T09:27:37.328Z,100.00
2023-03-13T09:32:39.007Z,100.00
2023-03-13T09:37:42.033Z,100.00
2023-03-13T09:42:46.269Z,100.00
2023-03-13T09:47:49.146Z,100.00
2023-03-13T09:52:54.662Z,100.00
2023-03-13T09:57:57.059Z,100.00
2023-03-13T10:03:02.322Z,100.00
2023-03-13T10:08:13.220Z,100.00
2023-03-13T10:13:18.113Z,100.00
2023-03-13T10:18:23.704Z,100.00
2023-03-13T10:23:29.931Z,100.00
2023-03-13T10:28:31.630Z,100.00
2023-03-13T10:33:34.075Z,100.00
2023-03-13T10:38:48.648Z,99.91
2023-03-13T10:43:51.722Z,98.64
2023-03-13T10:48:54.411Z,97.54
2023-03-13T10:53:57.463Z,96.76
2023-03-13T10:58:59.172Z,95.61
2023-03-13T11:04:01.003Z,95.89
2023-03-13T11:09:11.034Z,94.79
2023-03-13T11:14:14.582Z,92.45
2023-03-13T11:19:29.648Z,80.49
2023-03-13T11:24:36.722Z,79.33
2023-03-13T11:29:42.429Z,77.87
2023-03-13T11:34:46.236Z,75.82
2023-03-13T11:39:53.608Z,75.86
2023-03-13T11:44:57.441Z,77.76
2023-03-13T11:50:28.941Z,78.57
2023-03-13T11:55:58.651Z,77.27
2023-03-13T12:01:01.751Z,77.03
2023-03-13T12:06:03.928Z,77.21
2023-03-13T12:11:12.532Z,75.31
2023-03-13T12:16:15.797Z,74.94
2023-03-13T12:21:19.578Z,70.88
2023-03-13T12:26:35.169Z,69.35
2023-03-13T12:31:38.236Z,67.39
2023-03-13T12:36:41.486Z,68.69
2023-03-13T12:41:45.063Z,69.85
2023-03-13T12:46:47.367Z,68.27
2023-03-13T12:51:57.835Z,67.50
2023-03-13T12:57:10.664Z,64.70
2023-03-13T13:02:16.654Z,63.67
2023-03-13T13:07:23.401Z,63.15
2023-03-13T13:12:26.471Z,62.69
2023-03-13T13:17:40.799Z,61.92
2023-03-13T13:22:47.168Z,61.64
2023-03-13T13:27:50.691Z,61.18
2023-03-13T13:32:52.542Z,59.87
2023-03-13T13:38:14.149Z,61.81
2023-03-13T13:43:21.655Z,61.73
2023-03-13T13:48:28.236Z,62.14
2023-03-13T13:53:31.031Z,60.92
2023-03-13T13:58:34.778Z,60.96
2023-03-13T14:03:42.096Z,61.32
2023-03-13T14:08:45.074Z,60.36
2023-03-13T14:14:03.098Z,58.84
2023-03-13T14:19:04.970Z,58.49
2023-03-13T14:24:13.301Z,57.76
2023-03-13T14:29:25.674Z,57.23
2023-03-13T14:34:30.978Z,57.19
2023-03-13T14:39:38.173Z,57.54
2023-03-13T14:44:43.781Z,57.88
2023-03-13T14:49:45.563Z,57.87
2023-03-13T14:54:52.586Z,59.80
2023-03-13T14:59:56.005Z,60.55
2023-03-13T15:04:59.607Z,61.19
2023-03-13T15:10:01.372Z,62.30
2023-03-13T15:15:05.044Z,62.88
2023-03-13T15:20:09.529Z,63.26
2023-03-13T15:25:15.396Z,63.96
2023-03-13T15:30:19.619Z,63.34
2023-03-13T15:35:27.394Z,63.32
2023-03-13T15:40:31.092Z,64.39
2023-03-13T15:45:34.231Z,64.58
2023-03-13T15:50:35.954Z,65.93
2023-03-13T15:55:37.668Z,70.27
2023-03-13T16:00:40.879Z,70.93
2023-03-13T16:05:42.783Z,71.20
2023-03-13T16:10:44.570Z,71.56
2023-03-13T16:15:48.949Z,71.63
2023-03-13T16:20:52.119Z,71.00
2023-03-13T16:25:53.833Z,71.08
2023-03-13T16:30:57.018Z,70.74
2023-03-13T16:35:58.764Z,71.29
2023-03-13T16:41:00.493Z,71.77
2023-03-13T16:46:06.322Z,72.02
2023-03-13T16:51:17.346Z,72.04
2023-03-13T16:56:21.868Z,72.11
2023-03-13T17:01:26.032Z,72.26
2023-03-13T17:06:28.682Z,74.15
2023-03-13T17:11:30.440Z,76.22
2023-03-13T17:16:34.442Z,78.30
2023-03-13T17:21:36.726Z,81.76
2023-03-13T17:26:38.907Z,84.36
2023-03-13T17:31:41.996Z,85.65
2023-03-13T17:36:44.533Z,86.92
2023-03-13T17:41:46.255Z,87.96
2023-03-13T17:46:51.179Z,88.74
2023-03-13T17:51:53.147Z,89.48
2023-03-13T17:56:56.374Z,90.18
2023-03-13T18:01:59.565Z,90.14
2023-03-13T18:07:01.290Z,90.85
2023-03-13T18:12:03.263Z,91.07
2023-03-13T18:17:13.387Z,91.69
2023-03-13T18:22:15.907Z,92.58
2023-03-13T18:27:18.725Z,93.32
2023-03-13T18:32:21.915Z,94.43
2023-03-13T18:37:26.076Z,94.15
2023-03-13T18:42:27.846Z,94.58
2023-03-13T18:47:31.400Z,95.00
2023-03-13T18:52:33.176Z,93.19
2023-03-13T18:57:34.979Z,93.31
2023-03-13T19:02:38.104Z,93.22
2023-03-13T19:07:39.965Z,92.93
2023-03-13T19:12:41.680Z,92.96
2023-03-13T19:17:44.816Z,92.92
2023-03-13T19:22:46.556Z,93.01
2023-03-13T19:27:48.363Z,93.08
2023-03-13T19:32:51.517Z,93.20
2023-03-13T19:37:53.317Z,93.04
2023-03-13T19:42:55.015Z,93.28
2023-03-13T19:47:57.983Z,93.60
2023-03-13T19:52:59.714Z,94.18
2023-03-13T19:58:03.910Z,94.53
2023-03-13T20:03:07.159Z,95.19
2023-03-13T20:08:08.917Z,95.34
2023-03-13T20:13:10.866Z,95.67
2023-03-13T20:18:13.912Z,95.74
2023-03-13T20:23:15.798Z,95.86
2023-03-13T20:28:17.503Z,96.08
2023-03-13T20:33:20.637Z,96.06
2023-03-13T20:38:22.796Z,95.95
2023-03-13T20:43:24.718Z,96.09
2023-03-13T20:48:28.002Z,96.29
2023-03-13T20:53:29.738Z,95.75
2023-03-13T20:58:31.528Z,95.77
2023-03-13T21:03:35.849Z,96.29
2023-03-13T21:08:38.875Z,95.42
2023-03-13T21:13:40.839Z,95.32
2023-03-13T21:18:43.890Z,95.07
2023-03-13T21:23:45.741Z,94.58
2023-03-13T21:28:47.994Z,94.68
2023-03-13T21:33:51.106Z,94.51
2023-03-13T21:38:52.899Z,93.92
2023-03-13T21:43:55.797Z,93.63
2023-03-13T21:48:59.004Z,93.25
2023-03-13T21:54:00.850Z,93.06
2023-03-13T21:59:02.612Z,92.44
2023-03-13T22:04:05.767Z,91.61
2023-03-13T22:09:08.597Z,90.90
2023-03-13T22:14:10.296Z,90.28
2023-03-13T22:19:14.194Z,89.74
2023-03-13T22:24:16.001Z,89.29
2023-03-13T22:29:17.697Z,89.23
2023-03-13T22:34:20.738Z,89.13
2023-03-13T22:39:22.544Z,88.86
2023-03-13T22:44:24.442Z,88.65
2023-03-13T22:49:27.820Z,88.29
2023-03-13T22:54:29.606Z,88.74
2023-03-13T22:59:31.594Z,88.74
2023-03-13T23:04:34.801Z,88.76
2023-03-13T23:09:36.681Z,88.81
2023-03-13T23:14:38.475Z,88.87
2023-03-13T23:19:41.819Z,89.21
2023-03-13T23:24:43.554Z,89.70
2023-03-13T23:29:45.430Z,90.97
2023-03-13T23:34:48.456Z,91.68
2023-03-13T23:39:50.156Z,91.99
2023-03-13T23:44:51.870Z,91.93
2023-03-13T23:49:55.041Z,91.40
2023-03-13T23:54:57.030Z,91.29
